sensor_id;sensor_type;location;lat;lon;timestamp;temperature;humidity
40756;DHT22;26461;45.630;9.418;2023-08-08T00:00:09;22.60;28.80
40756;DHT22;26461;45.630;9.418;2023-08-08T00:03:20;22.60;28.90
40756;DHT22;26461;45.630;9.418;2023-08-08T00:06:25;22.60;29.00
40756;DHT22;26461;45.630;9.418;2023-08-08T00:09:35;22.60;29.10
40756;DHT22;26461;45.630;9.418;2023-08-08T00:12:46;22.60;29.20
40756;DHT22;26461;45.630;9.418;2023-08-08T00:15:56;22.60;29.20
40756;DHT22;26461;45.630;9.418;2023-08-08T00:19:06;22.60;29.20
40756;DHT22;26461;45.630;9.418;2023-08-08T00:22:16;22.60;29.30
40756;DHT22;26461;45.630;9.418;2023-08-08T00:25:27;22.60;29.30
40756;DHT22;26461;45.630;9.418;2023-08-08T00:28:32;22.60;29.30
40756;DHT22;26461;45.630;9.418;2023-08-08T00:31:43;22.60;29.30
40756;DHT22;26461;45.630;9.418;2023-08-08T00:34:53;22.60;29.20
40756;DHT22;26461;45.630;9.418;2023-08-08T00:38:03;22.60;29.20
40756;DHT22;26461;45.630;9.418;2023-08-08T00:41:09;22.50;29.20
40756;DHT22;26461;45.630;9.418;2023-08-08T00:44:14;22.50;29.30
40756;DHT22;26461;45.630;9.418;2023-08-08T00:47:21;22.50;29.30
40756;DHT22;26461;45.630;9.418;2023-08-08T00:50:26;22.50;29.40
40756;DHT22;26461;45.630;9.418;2023-08-08T00:53:37;22.50;29.30
40756;DHT22;26461;45.630;9.418;2023-08-08T00:56:42;22.50;29.20
40756;DHT22;26461;45.630;9.418;2023-08-08T00:59:48;22.50;29.30
40756;DHT22;26461;45.630;9.418;2023-08-08T01:02:58;22.50;29.30
40756;DHT22;26461;45.630;9.418;2023-08-08T01:09:24;22.50;29.40
40756;DHT22;26461;45.630;9.418;2023-08-08T01:12:42;22.40;29.40
40756;DHT22;26461;45.630;9.418;2023-08-08T01:15:49;22.40;29.60
40756;DHT22;26461;45.630;9.418;2023-08-08T01:19:00;22.40;29.60
40756;DHT22;26461;45.630;9.418;2023-08-08T01:22:22;22.40;29.70
40756;DHT22;26461;45.630;9.418;2023-08-08T01:25:32;22.40;29.70
40756;DHT22;26461;45.630;9.418;2023-08-08T01:28:39;22.40;29.70
40756;DHT22;26461;45.630;9.418;2023-08-08T01:31:44;22.30;29.70
40756;DHT22;26461;45.630;9.418;2023-08-08T01:34:54;22.30;29.80
40756;DHT22;26461;45.630;9.418;2023-08-08T01:38:25;22.40;29.90
40756;DHT22;26461;45.630;9.418;2023-08-08T01:41:33;22.30;29.70
40756;DHT22;26461;45.630;9.418;2023-08-08T01:44:41;22.30;29.80
40756;DHT22;26461;45.630;9.418;2023-08-08T01:47:51;22.30;29.80
40756;DHT22;26461;45.630;9.418;2023-08-08T01:50:56;22.30;29.90
40756;DHT22;26461;45.630;9.418;2023-08-08T01:54:03;22.30;30.00
40756;DHT22;26461;45.630;9.418;2023-08-08T01:57:13;22.30;30.00
40756;DHT22;26461;45.630;9.418;2023-08-08T02:00:23;22.30;30.00
40756;DHT22;26461;45.630;9.418;2023-08-08T02:03:31;22.20;30.00
40756;DHT22;26461;45.630;9.418;2023-08-08T02:06:36;22.30;30.00
40756;DHT22;26461;45.630;9.418;2023-08-08T02:09:46;22.20;30.10
40756;DHT22;26461;45.630;9.418;2023-08-08T02:12:51;22.20;30.00
40756;DHT22;26461;45.630;9.418;2023-08-08T02:15:56;22.20;30.10
40756;DHT22;26461;45.630;9.418;2023-08-08T02:19:02;22.20;30.30
40756;DHT22;26461;45.630;9.418;2023-08-08T02:22:08;22.20;30.30
40756;DHT22;26461;45.630;9.418;2023-08-08T02:25:18;22.20;30.30
40756;DHT22;26461;45.630;9.418;2023-08-08T02:28:31;22.10;30.30
40756;DHT22;26461;45.630;9.418;2023-08-08T02:31:37;22.10;30.30
40756;DHT22;26461;45.630;9.418;2023-08-08T02:34:42;22.10;30.40
40756;DHT22;26461;45.630;9.418;2023-08-08T02:37:52;22.10;30.50
40756;DHT22;26461;45.630;9.418;2023-08-08T02:41:03;22.10;31.20
40756;DHT22;26461;45.630;9.418;2023-08-08T02:44:13;22.10;30.60
40756;DHT22;26461;45.630;9.418;2023-08-08T02:47:24;22.10;30.70
40756;DHT22;26461;45.630;9.418;2023-08-08T02:50:35;22.00;30.70
40756;DHT22;26461;45.630;9.418;2023-08-08T02:53:45;22.00;30.70
40756;DHT22;26461;45.630;9.418;2023-08-08T02:56:55;22.00;30.80
40756;DHT22;26461;45.630;9.418;2023-08-08T03:00:02;21.90;30.80
40756;DHT22;26461;45.630;9.418;2023-08-08T03:03:14;21.90;30.80
40756;DHT22;26461;45.630;9.418;2023-08-08T03:06:25;21.90;30.80
40756;DHT22;26461;45.630;9.418;2023-08-08T03:09:30;21.90;31.20
40756;DHT22;26461;45.630;9.418;2023-08-08T03:12:41;21.90;31.80
40756;DHT22;26461;45.630;9.418;2023-08-08T03:15:52;21.90;33.30
40756;DHT22;26461;45.630;9.418;2023-08-08T03:19:02;21.90;34.40
40756;DHT22;26461;45.630;9.418;2023-08-08T03:22:14;21.80;34.40
40756;DHT22;26461;45.630;9.418;2023-08-08T03:25:19;21.70;34.40
40756;DHT22;26461;45.630;9.418;2023-08-08T03:28:25;21.70;35.10
40756;DHT22;26461;45.630;9.418;2023-08-08T03:31:35;21.60;35.00
40756;DHT22;26461;45.630;9.418;2023-08-08T03:34:46;21.60;35.00
40756;DHT22;26461;45.630;9.418;2023-08-08T03:37:56;21.60;35.00
40756;DHT22;26461;45.630;9.418;2023-08-08T03:41:02;21.50;35.20
40756;DHT22;26461;45.630;9.418;2023-08-08T03:44:07;21.40;35.40
40756;DHT22;26461;45.630;9.418;2023-08-08T03:47:18;21.40;35.70
40756;DHT22;26461;45.630;9.418;2023-08-08T03:50:24;21.40;35.60
40756;DHT22;26461;45.630;9.418;2023-08-08T03:53:30;21.40;35.70
40756;DHT22;26461;45.630;9.418;2023-08-08T03:56:41;21.30;35.30
40756;DHT22;26461;45.630;9.418;2023-08-08T03:59:51;21.30;35.00
40756;DHT22;26461;45.630;9.418;2023-08-08T04:02:57;21.20;35.00
40756;DHT22;26461;45.630;9.418;2023-08-08T04:06:03;21.10;34.80
40756;DHT22;26461;45.630;9.418;2023-08-08T04:09:10;21.10;34.50
40756;DHT22;26461;45.630;9.418;2023-08-08T04:12:21;21.00;34.20
40756;DHT22;26461;45.630;9.418;2023-08-08T04:15:31;20.90;34.40
40756;DHT22;26461;45.630;9.418;2023-08-08T04:18:41;21.00;34.80
40756;DHT22;26461;45.630;9.418;2023-08-08T04:21:51;20.90;34.70
40756;DHT22;26461;45.630;9.418;2023-08-08T04:25:03;20.90;34.30
40756;DHT22;26461;45.630;9.418;2023-08-08T04:28:13;20.90;34.50
40756;DHT22;26461;45.630;9.418;2023-08-08T04:31:19;20.90;33.70
40756;DHT22;26461;45.630;9.418;2023-08-08T04:34:25;21.00;33.30
40756;DHT22;26461;45.630;9.418;2023-08-08T04:37:30;21.00;33.40
40756;DHT22;26461;45.630;9.418;2023-08-08T04:40:40;21.00;33.40
40756;DHT22;26461;45.630;9.418;2023-08-08T04:43:45;21.10;33.40
40756;DHT22;26461;45.630;9.418;2023-08-08T04:46:56;21.10;33.10
40756;DHT22;26461;45.630;9.418;2023-08-08T04:50:01;21.20;33.30
40756;DHT22;26461;45.630;9.418;2023-08-08T04:53:06;21.20;33.20
40756;DHT22;26461;45.630;9.418;2023-08-08T04:56:11;21.20;33.40
40756;DHT22;26461;45.630;9.418;2023-08-08T04:59:23;21.30;34.10
40756;DHT22;26461;45.630;9.418;2023-08-08T05:02:34;21.30;34.30
40756;DHT22;26461;45.630;9.418;2023-08-08T05:05:44;21.40;35.10
40756;DHT22;26461;45.630;9.418;2023-08-08T05:08:52;21.40;35.40
40756;DHT22;26461;45.630;9.418;2023-08-08T05:11:58;21.50;35.40
40756;DHT22;26461;45.630;9.418;2023-08-08T05:15:08;21.50;35.60
40756;DHT22;26461;45.630;9.418;2023-08-08T05:18:13;21.50;35.10
40756;DHT22;26461;45.630;9.418;2023-08-08T05:21:23;21.50;34.70
40756;DHT22;26461;45.630;9.418;2023-08-08T05:24:29;21.50;34.60
40756;DHT22;26461;45.630;9.418;2023-08-08T05:27:39;21.50;34.50
40756;DHT22;26461;45.630;9.418;2023-08-08T05:30:50;21.50;34.50
40756;DHT22;26461;45.630;9.418;2023-08-08T05:34:00;21.50;34.60
40756;DHT22;26461;45.630;9.418;2023-08-08T05:37:10;21.50;34.60
40756;DHT22;26461;45.630;9.418;2023-08-08T05:40:15;21.50;34.40
40756;DHT22;26461;45.630;9.418;2023-08-08T05:43:25;21.60;34.30
40756;DHT22;26461;45.630;9.418;2023-08-08T05:46:39;21.50;34.10
40756;DHT22;26461;45.630;9.418;2023-08-08T05:49:49;21.60;34.20
40756;DHT22;26461;45.630;9.418;2023-08-08T05:52:59;21.60;34.50
40756;DHT22;26461;45.630;9.418;2023-08-08T05:56:04;21.60;34.40
40756;DHT22;26461;45.630;9.418;2023-08-08T05:59:14;21.60;34.60
40756;DHT22;26461;45.630;9.418;2023-08-08T06:02:25;21.60;34.50
40756;DHT22;26461;45.630;9.418;2023-08-08T06:05:30;21.60;34.70
40756;DHT22;26461;45.630;9.418;2023-08-08T06:08:41;21.70;34.90
40756;DHT22;26461;45.630;9.418;2023-08-08T06:11:51;21.70;35.00
40756;DHT22;26461;45.630;9.418;2023-08-08T06:15:01;21.70;35.00
40756;DHT22;26461;45.630;9.418;2023-08-08T06:18:11;21.70;35.00
40756;DHT22;26461;45.630;9.418;2023-08-08T06:21:21;21.80;35.10
40756;DHT22;26461;45.630;9.418;2023-08-08T06:24:26;21.70;35.10
40756;DHT22;26461;45.630;9.418;2023-08-08T06:27:31;21.70;35.30
40756;DHT22;26461;45.630;9.418;2023-08-08T06:30:36;21.80;35.30
40756;DHT22;26461;45.630;9.418;2023-08-08T06:33:46;21.80;35.40
40756;DHT22;26461;45.630;9.418;2023-08-08T06:36:51;21.90;35.40
40756;DHT22;26461;45.630;9.418;2023-08-08T06:40:01;21.90;35.80
40756;DHT22;26461;45.630;9.418;2023-08-08T06:43:26;21.90;35.80
40756;DHT22;26461;45.630;9.418;2023-08-08T06:46:58;22.00;35.80
40756;DHT22;26461;45.630;9.418;2023-08-08T06:50:08;22.00;35.90
40756;DHT22;26461;45.630;9.418;2023-08-08T06:53:13;22.00;35.90
40756;DHT22;26461;45.630;9.418;2023-08-08T06:56:23;22.10;35.80
40756;DHT22;26461;45.630;9.418;2023-08-08T06:59:36;22.10;36.10
40756;DHT22;26461;45.630;9.418;2023-08-08T07:02:41;22.10;36.40
40756;DHT22;26461;45.630;9.418;2023-08-08T07:05:51;22.20;37.20
40756;DHT22;26461;45.630;9.418;2023-08-08T07:09:02;22.20;37.20
40756;DHT22;26461;45.630;9.418;2023-08-08T07:12:07;22.20;36.90
40756;DHT22;26461;45.630;9.418;2023-08-08T07:15:18;22.30;36.30
40756;DHT22;26461;45.630;9.418;2023-08-08T07:18:30;22.30;35.60
40756;DHT22;26461;45.630;9.418;2023-08-08T07:21:40;22.30;35.80
40756;DHT22;26461;45.630;9.418;2023-08-08T07:24:45;22.30;35.80
40756;DHT22;26461;45.630;9.418;2023-08-08T07:27:51;22.40;36.10
40756;DHT22;26461;45.630;9.418;2023-08-08T07:31:01;22.40;36.10
40756;DHT22;26461;45.630;9.418;2023-08-08T07:34:07;22.40;36.90
40756;DHT22;26461;45.630;9.418;2023-08-08T07:37:13;22.50;36.60
40756;DHT22;26461;45.630;9.418;2023-08-08T07:40:19;22.50;36.20
40756;DHT22;26461;45.630;9.418;2023-08-08T07:43:24;22.60;36.00
40756;DHT22;26461;45.630;9.418;2023-08-08T07:46:30;22.60;36.10
40756;DHT22;26461;45.630;9.418;2023-08-08T07:49:35;22.70;35.50
40756;DHT22;26461;45.630;9.418;2023-08-08T07:52:45;22.70;34.90
40756;DHT22;26461;45.630;9.418;2023-08-08T07:55:56;22.70;34.50
40756;DHT22;26461;45.630;9.418;2023-08-08T07:59:06;22.70;34.20
40756;DHT22;26461;45.630;9.418;2023-08-08T08:02:11;22.80;34.80
40756;DHT22;26461;45.630;9.418;2023-08-08T08:05:17;22.80;34.20
40756;DHT22;26461;45.630;9.418;2023-08-08T08:08:23;22.80;34.10
40756;DHT22;26461;45.630;9.418;2023-08-08T08:11:37;22.90;34.30
40756;DHT22;26461;45.630;9.418;2023-08-08T08:14:42;22.90;34.20
40756;DHT22;26461;45.630;9.418;2023-08-08T08:17:47;22.90;34.60
40756;DHT22;26461;45.630;9.418;2023-08-08T08:20:52;23.00;35.20
40756;DHT22;26461;45.630;9.418;2023-08-08T08:24:03;23.10;35.70
40756;DHT22;26461;45.630;9.418;2023-08-08T08:27:13;23.10;36.40
40756;DHT22;26461;45.630;9.418;2023-08-08T08:30:24;23.20;35.60
40756;DHT22;26461;45.630;9.418;2023-08-08T08:33:36;23.20;35.60
40756;DHT22;26461;45.630;9.418;2023-08-08T08:36:46;23.30;35.90
40756;DHT22;26461;45.630;9.418;2023-08-08T08:39:51;23.20;35.60
40756;DHT22;26461;45.630;9.418;2023-08-08T08:42:56;23.30;35.00
40756;DHT22;26461;45.630;9.418;2023-08-08T08:46:08;23.20;35.50
40756;DHT22;26461;45.630;9.418;2023-08-08T08:49:17;23.30;35.80
40756;DHT22;26461;45.630;9.418;2023-08-08T08:52:23;23.30;35.10
40756;DHT22;26461;45.630;9.418;2023-08-08T08:55:34;23.30;35.30
40756;DHT22;26461;45.630;9.418;2023-08-08T08:58:44;23.30;34.20
40756;DHT22;26461;45.630;9.418;2023-08-08T09:01:50;23.30;33.90
40756;DHT22;26461;45.630;9.418;2023-08-08T09:04:56;23.40;33.60
40756;DHT22;26461;45.630;9.418;2023-08-08T09:08:02;23.40;33.60
40756;DHT22;26461;45.630;9.418;2023-08-08T09:11:12;23.40;32.80
40756;DHT22;26461;45.630;9.418;2023-08-08T09:14:25;23.40;32.20
40756;DHT22;26461;45.630;9.418;2023-08-08T09:17:36;23.30;32.60
40756;DHT22;26461;45.630;9.418;2023-08-08T09:20:50;23.40;32.30
40756;DHT22;26461;45.630;9.418;2023-08-08T09:24:00;23.40;33.10
40756;DHT22;26461;45.630;9.418;2023-08-08T09:27:07;23.40;32.80
40756;DHT22;26461;45.630;9.418;2023-08-08T09:30:17;23.40;33.00
40756;DHT22;26461;45.630;9.418;2023-08-08T09:33:29;23.40;32.50
40756;DHT22;26461;45.630;9.418;2023-08-08T09:36:34;23.50;32.40
40756;DHT22;26461;45.630;9.418;2023-08-08T09:39:40;23.50;32.50
40756;DHT22;26461;45.630;9.418;2023-08-08T09:42:45;23.50;32.60
40756;DHT22;26461;45.630;9.418;2023-08-08T09:45:55;23.50;32.20
40756;DHT22;26461;45.630;9.418;2023-08-08T09:49:06;23.50;33.40
40756;DHT22;26461;45.630;9.418;2023-08-08T09:52:16;23.60;32.90
40756;DHT22;26461;45.630;9.418;2023-08-08T09:55:22;23.60;32.60
40756;DHT22;26461;45.630;9.418;2023-08-08T09:58:29;23.60;32.10
40756;DHT22;26461;45.630;9.418;2023-08-08T10:01:40;23.60;32.90
40756;DHT22;26461;45.630;9.418;2023-08-08T10:04:52;23.70;32.90
40756;DHT22;26461;45.630;9.418;2023-08-08T10:08:15;23.70;34.60
40756;DHT22;26461;45.630;9.418;2023-08-08T10:11:25;23.70;34.30
40756;DHT22;26461;45.630;9.418;2023-08-08T10:14:37;23.80;35.20
40756;DHT22;26461;45.630;9.418;2023-08-08T10:17:43;23.80;34.70
40756;DHT22;26461;45.630;9.418;2023-08-08T10:20:50;23.90;34.30
40756;DHT22;26461;45.630;9.418;2023-08-08T10:24:06;23.90;34.20
40756;DHT22;26461;45.630;9.418;2023-08-08T10:27:28;23.90;34.40
40756;DHT22;26461;45.630;9.418;2023-08-08T10:30:53;24.00;34.30
40756;DHT22;26461;45.630;9.418;2023-08-08T10:34:05;24.00;34.00
40756;DHT22;26461;45.630;9.418;2023-08-08T10:37:17;24.10;33.40
40756;DHT22;26461;45.630;9.418;2023-08-08T10:40:32;24.10;33.00
40756;DHT22;26461;45.630;9.418;2023-08-08T10:44:01;24.10;33.10
40756;DHT22;26461;45.630;9.418;2023-08-08T10:47:06;24.10;32.00
40756;DHT22;26461;45.630;9.418;2023-08-08T10:50:13;24.10;31.70
40756;DHT22;26461;45.630;9.418;2023-08-08T10:53:23;24.10;31.50
40756;DHT22;26461;45.630;9.418;2023-08-08T10:56:30;24.10;32.70
40756;DHT22;26461;45.630;9.418;2023-08-08T10:59:37;24.20;33.00
40756;DHT22;26461;45.630;9.418;2023-08-08T11:02:44;24.10;32.90
40756;DHT22;26461;45.630;9.418;2023-08-08T11:05:55;24.20;33.80
40756;DHT22;26461;45.630;9.418;2023-08-08T11:09:01;24.30;33.40
40756;DHT22;26461;45.630;9.418;2023-08-08T11:12:14;24.30;32.70
40756;DHT22;26461;45.630;9.418;2023-08-08T11:15:25;24.30;32.60
40756;DHT22;26461;45.630;9.418;2023-08-08T11:18:37;24.30;34.40
40756;DHT22;26461;45.630;9.418;2023-08-08T11:21:45;24.40;34.20
40756;DHT22;26461;45.630;9.418;2023-08-08T11:24:50;24.40;33.80
40756;DHT22;26461;45.630;9.418;2023-08-08T11:27:58;24.40;33.00
40756;DHT22;26461;45.630;9.418;2023-08-08T11:31:03;24.40;33.80
40756;DHT22;26461;45.630;9.418;2023-08-08T11:34:08;24.40;33.50
40756;DHT22;26461;45.630;9.418;2023-08-08T11:37:15;24.50;33.60
40756;DHT22;26461;45.630;9.418;2023-08-08T11:40:27;24.50;32.70
40756;DHT22;26461;45.630;9.418;2023-08-08T11:43:39;24.50;32.40
40756;DHT22;26461;45.630;9.418;2023-08-08T11:46:51;24.60;33.50
40756;DHT22;26461;45.630;9.418;2023-08-08T11:50:02;24.60;34.00
40756;DHT22;26461;45.630;9.418;2023-08-08T11:53:12;24.70;32.70
40756;DHT22;26461;45.630;9.418;2023-08-08T11:56:21;24.70;33.40
40756;DHT22;26461;45.630;9.418;2023-08-08T11:59:32;24.70;33.60
40756;DHT22;26461;45.630;9.418;2023-08-08T12:02:37;24.80;34.80
40756;DHT22;26461;45.630;9.418;2023-08-08T12:05:49;24.80;34.40
40756;DHT22;26461;45.630;9.418;2023-08-08T12:08:54;24.90;34.10
40756;DHT22;26461;45.630;9.418;2023-08-08T12:12:04;24.90;33.50
40756;DHT22;26461;45.630;9.418;2023-08-08T12:15:15;24.90;33.80
40756;DHT22;26461;45.630;9.418;2023-08-08T12:18:20;25.00;34.10
40756;DHT22;26461;45.630;9.418;2023-08-08T12:21:31;25.10;34.00
40756;DHT22;26461;45.630;9.418;2023-08-08T12:24:43;25.00;33.90
40756;DHT22;26461;45.630;9.418;2023-08-08T12:27:53;25.10;34.10
40756;DHT22;26461;45.630;9.418;2023-08-08T12:30:59;25.10;34.00
40756;DHT22;26461;45.630;9.418;2023-08-08T12:34:05;25.20;33.50
40756;DHT22;26461;45.630;9.418;2023-08-08T12:37:16;25.20;33.00
40756;DHT22;26461;45.630;9.418;2023-08-08T12:40:26;25.30;33.20
40756;DHT22;26461;45.630;9.418;2023-08-08T12:43:36;25.30;33.90
40756;DHT22;26461;45.630;9.418;2023-08-08T12:46:41;25.40;32.90
40756;DHT22;26461;45.630;9.418;2023-08-08T12:49:47;25.50;32.40
40756;DHT22;26461;45.630;9.418;2023-08-08T12:52:57;25.50;32.60
40756;DHT22;26461;45.630;9.418;2023-08-08T12:56:02;25.60;31.80
40756;DHT22;26461;45.630;9.418;2023-08-08T12:59:09;25.60;31.30
40756;DHT22;26461;45.630;9.418;2023-08-08T13:02:19;25.70;31.10
40756;DHT22;26461;45.630;9.418;2023-08-08T13:05:30;25.70;32.40
40756;DHT22;26461;45.630;9.418;2023-08-08T13:08:35;25.70;32.60
40756;DHT22;26461;45.630;9.418;2023-08-08T13:11:40;25.80;32.30
40756;DHT22;26461;45.630;9.418;2023-08-08T13:14:50;25.80;32.90
40756;DHT22;26461;45.630;9.418;2023-08-08T13:17:55;25.90;32.70
40756;DHT22;26461;45.630;9.418;2023-08-08T13:21:00;25.90;32.90
40756;DHT22;26461;45.630;9.418;2023-08-08T13:24:06;25.90;31.40
40756;DHT22;26461;45.630;9.418;2023-08-08T13:27:13;25.90;33.00
40756;DHT22;26461;45.630;9.418;2023-08-08T13:30:19;25.90;32.70
40756;DHT22;26461;45.630;9.418;2023-08-08T13:33:31;26.00;33.30
40756;DHT22;26461;45.630;9.418;2023-08-08T13:36:41;26.00;32.60
40756;DHT22;26461;45.630;9.418;2023-08-08T13:39:51;26.00;31.40
40756;DHT22;26461;45.630;9.418;2023-08-08T13:43:20;26.00;30.60
40756;DHT22;26461;45.630;9.418;2023-08-08T13:46:31;26.10;31.50
40756;DHT22;26461;45.630;9.418;2023-08-08T13:49:36;26.10;32.30
40756;DHT22;26461;45.630;9.418;2023-08-08T13:52:41;26.20;32.60
40756;DHT22;26461;45.630;9.418;2023-08-08T13:55:51;26.30;32.60
40756;DHT22;26461;45.630;9.418;2023-08-08T13:59:02;26.40;32.50
40756;DHT22;26461;45.630;9.418;2023-08-08T14:02:12;26.60;31.60
40756;DHT22;26461;45.630;9.418;2023-08-08T14:05:17;26.60;31.00
40756;DHT22;26461;45.630;9.418;2023-08-08T14:08:22;26.70;31.00
40756;DHT22;26461;45.630;9.418;2023-08-08T14:11:32;26.80;30.50
40756;DHT22;26461;45.630;9.418;2023-08-08T14:14:37;26.90;30.60
40756;DHT22;26461;45.630;9.418;2023-08-08T14:17:47;27.00;31.90
40756;DHT22;26461;45.630;9.418;2023-08-08T14:20:53;27.20;32.40
40756;DHT22;26461;45.630;9.418;2023-08-08T14:24:03;27.30;31.90
40756;DHT22;26461;45.630;9.418;2023-08-08T14:27:13;27.40;29.90
40756;DHT22;26461;45.630;9.418;2023-08-08T14:30:19;27.50;29.80
40756;DHT22;26461;45.630;9.418;2023-08-08T14:33:27;27.60;29.80
40756;DHT22;26461;45.630;9.418;2023-08-08T14:36:33;27.70;29.80
40756;DHT22;26461;45.630;9.418;2023-08-08T14:39:38;27.80;29.50
40756;DHT22;26461;45.630;9.418;2023-08-08T14:42:43;27.90;28.80
40756;DHT22;26461;45.630;9.418;2023-08-08T14:45:54;28.00;29.20
40756;DHT22;26461;45.630;9.418;2023-08-08T14:48:59;28.10;28.60
40756;DHT22;26461;45.630;9.418;2023-08-08T14:52:04;28.20;27.70
40756;DHT22;26461;45.630;9.418;2023-08-08T14:55:15;28.30;27.80
40756;DHT22;26461;45.630;9.418;2023-08-08T14:58:28;28.50;28.60
40756;DHT22;26461;45.630;9.418;2023-08-08T15:01:34;28.60;27.10
40756;DHT22;26461;45.630;9.418;2023-08-08T15:04:44;28.80;26.80
40756;DHT22;26461;45.630;9.418;2023-08-08T15:07:51;28.90;26.50
40756;DHT22;26461;45.630;9.418;2023-08-08T15:11:01;29.00;26.80
40756;DHT22;26461;45.630;9.418;2023-08-08T15:14:06;29.20;27.00
40756;DHT22;26461;45.630;9.418;2023-08-08T15:17:11;29.30;25.60
40756;DHT22;26461;45.630;9.418;2023-08-08T15:20:16;29.40;25.70
40756;DHT22;26461;45.630;9.418;2023-08-08T15:23:28;29.60;25.30
40756;DHT22;26461;45.630;9.418;2023-08-08T15:26:33;29.70;24.90
40756;DHT22;26461;45.630;9.418;2023-08-08T15:29:38;29.80;24.10
40756;DHT22;26461;45.630;9.418;2023-08-08T15:32:48;29.90;24.00
40756;DHT22;26461;45.630;9.418;2023-08-08T15:35:58;30.00;24.10
40756;DHT22;26461;45.630;9.418;2023-08-08T15:39:03;30.10;24.50
40756;DHT22;26461;45.630;9.418;2023-08-08T15:42:08;30.20;24.00
40756;DHT22;26461;45.630;9.418;2023-08-08T15:45:14;30.40;24.30
40756;DHT22;26461;45.630;9.418;2023-08-08T15:48:43;30.50;24.40
40756;DHT22;26461;45.630;9.418;2023-08-08T15:51:48;30.70;24.00
40756;DHT22;26461;45.630;9.418;2023-08-08T15:54:58;30.70;23.00
40756;DHT22;26461;45.630;9.418;2023-08-08T15:58:08;30.80;23.50
40756;DHT22;26461;45.630;9.418;2023-08-08T16:01:13;31.00;23.70
40756;DHT22;26461;45.630;9.418;2023-08-08T16:04:18;31.10;23.40
40756;DHT22;26461;45.630;9.418;2023-08-08T16:07:23;31.10;23.40
40756;DHT22;26461;45.630;9.418;2023-08-08T16:10:34;31.10;23.50
40756;DHT22;26461;45.630;9.418;2023-08-08T16:13:43;31.10;23.50
40756;DHT22;26461;45.630;9.418;2023-08-08T16:16:53;31.20;22.90
40756;DHT22;26461;45.630;9.418;2023-08-08T16:19:59;31.30;22.90
40756;DHT22;26461;45.630;9.418;2023-08-08T16:23:09;31.30;22.60
40756;DHT22;26461;45.630;9.418;2023-08-08T16:26:20;31.40;22.70
40756;DHT22;26461;45.630;9.418;2023-08-08T16:29:25;31.60;22.80
40756;DHT22;26461;45.630;9.418;2023-08-08T16:32:35;31.60;22.40
40756;DHT22;26461;45.630;9.418;2023-08-08T16:35:41;31.60;22.70
40756;DHT22;26461;45.630;9.418;2023-08-08T16:38:46;31.60;22.90
40756;DHT22;26461;45.630;9.418;2023-08-08T16:41:57;31.50;22.50
40756;DHT22;26461;45.630;9.418;2023-08-08T16:45:05;31.50;22.70
40756;DHT22;26461;45.630;9.418;2023-08-08T16:48:10;31.40;23.20
40756;DHT22;26461;45.630;9.418;2023-08-08T16:51:21;31.30;23.10
40756;DHT22;26461;45.630;9.418;2023-08-08T16:54:26;31.30;24.60
40756;DHT22;26461;45.630;9.418;2023-08-08T16:57:39;31.20;23.50
40756;DHT22;26461;45.630;9.418;2023-08-08T17:00:44;31.10;23.10
40756;DHT22;26461;45.630;9.418;2023-08-08T17:03:54;31.10;22.90
40756;DHT22;26461;45.630;9.418;2023-08-08T17:07:04;31.10;23.00
40756;DHT22;26461;45.630;9.418;2023-08-08T17:10:15;31.00;23.10
40756;DHT22;26461;45.630;9.418;2023-08-08T17:13:20;31.00;23.30
40756;DHT22;26461;45.630;9.418;2023-08-08T17:16:31;30.90;23.80
40756;DHT22;26461;45.630;9.418;2023-08-08T17:19:41;30.90;23.80
40756;DHT22;26461;45.630;9.418;2023-08-08T17:22:46;30.90;23.60
40756;DHT22;26461;45.630;9.418;2023-08-08T17:25:51;30.90;23.30
40756;DHT22;26461;45.630;9.418;2023-08-08T17:28:57;30.80;23.30
40756;DHT22;26461;45.630;9.418;2023-08-08T17:32:02;30.80;23.80
40756;DHT22;26461;45.630;9.418;2023-08-08T17:35:08;30.80;24.00
40756;DHT22;26461;45.630;9.418;2023-08-08T17:38:13;30.80;25.90
40756;DHT22;26461;45.630;9.418;2023-08-08T17:41:24;30.60;25.00
40756;DHT22;26461;45.630;9.418;2023-08-08T17:44:29;30.50;24.60
40756;DHT22;26461;45.630;9.418;2023-08-08T17:47:34;30.40;24.70
40756;DHT22;26461;45.630;9.418;2023-08-08T17:50:44;30.30;25.50
40756;DHT22;26461;45.630;9.418;2023-08-08T17:53:55;30.20;25.60
40756;DHT22;26461;45.630;9.418;2023-08-08T17:57:00;30.00;25.70
40756;DHT22;26461;45.630;9.418;2023-08-08T18:00:10;29.80;25.80
40756;DHT22;26461;45.630;9.418;2023-08-08T18:03:21;29.70;25.90
40756;DHT22;26461;45.630;9.418;2023-08-08T18:06:32;29.60;26.10
40756;DHT22;26461;45.630;9.418;2023-08-08T18:09:42;29.40;26.30
40756;DHT22;26461;45.630;9.418;2023-08-08T18:12:55;29.30;26.40
40756;DHT22;26461;45.630;9.418;2023-08-08T18:16:01;29.30;26.70
40756;DHT22;26461;45.630;9.418;2023-08-08T18:19:11;29.20;27.00
40756;DHT22;26461;45.630;9.418;2023-08-08T18:22:17;29.10;27.20
40756;DHT22;26461;45.630;9.418;2023-08-08T18:25:22;29.00;27.10
40756;DHT22;26461;45.630;9.418;2023-08-08T18:28:33;28.90;26.90
40756;DHT22;26461;45.630;9.418;2023-08-08T18:31:43;28.70;27.10
40756;DHT22;26461;45.630;9.418;2023-08-08T18:34:48;28.60;28.00
40756;DHT22;26461;45.630;9.418;2023-08-08T18:37:58;28.50;28.00
40756;DHT22;26461;45.630;9.418;2023-08-08T18:41:08;28.40;28.00
40756;DHT22;26461;45.630;9.418;2023-08-08T18:44:13;28.30;28.10
40756;DHT22;26461;45.630;9.418;2023-08-08T18:47:23;28.30;28.40
40756;DHT22;26461;45.630;9.418;2023-08-08T18:50:33;28.10;28.40
40756;DHT22;26461;45.630;9.418;2023-08-08T18:53:38;28.00;28.60
40756;DHT22;26461;45.630;9.418;2023-08-08T18:56:49;27.90;29.00
40756;DHT22;26461;45.630;9.418;2023-08-08T18:59:59;27.80;29.00
40756;DHT22;26461;45.630;9.418;2023-08-08T19:03:05;27.70;30.00
40756;DHT22;26461;45.630;9.418;2023-08-08T19:06:10;27.50;30.80
40756;DHT22;26461;45.630;9.418;2023-08-08T19:09:20;27.40;31.00
40756;DHT22;26461;45.630;9.418;2023-08-08T19:12:25;27.30;30.80
40756;DHT22;26461;45.630;9.418;2023-08-08T19:15:35;27.20;31.20
40756;DHT22;26461;45.630;9.418;2023-08-08T19:18:46;27.10;31.10
40756;DHT22;26461;45.630;9.418;2023-08-08T19:21:51;27.10;31.40
40756;DHT22;26461;45.630;9.418;2023-08-08T19:24:58;27.10;31.80
40756;DHT22;26461;45.630;9.418;2023-08-08T19:28:03;27.00;32.00
40756;DHT22;26461;45.630;9.418;2023-08-08T19:31:09;27.00;32.50
40756;DHT22;26461;45.630;9.418;2023-08-08T19:34:14;26.90;32.20
40756;DHT22;26461;45.630;9.418;2023-08-08T19:37:19;26.90;32.00
40756;DHT22;26461;45.630;9.418;2023-08-08T19:40:31;26.90;32.00
40756;DHT22;26461;45.630;9.418;2023-08-08T19:43:41;26.80;32.00
40756;DHT22;26461;45.630;9.418;2023-08-08T19:46:51;26.80;32.20
40756;DHT22;26461;45.630;9.418;2023-08-08T19:49:57;26.70;32.20
40756;DHT22;26461;45.630;9.418;2023-08-08T19:53:07;26.70;32.00